Time;durP1;ratioP1;P1;durP2;ratioP2;P2;SDS_P1;SDS_P2;PMS_P1;PMS_P2;Temp;Humidity;BMP_temperature;BMP_pressure;BME280_temperature;BME280_humidity;BME280_pressure;Samples;Min_cycle;Max_cycle;Signal;HPM_P1;HPM_P2
2023/09/02 00:00:02;;;;;;;1.83;1.73;;;;;;;16.69;100.00;96752.47;5114424;28;20197;-54
2023/09/02 00:02:29;;;;;;;2.00;1.80;;;;;;;16.67;100.00;96756.34;5114080;28;20339;-53
2023/09/02 00:04:56;;;;;;;3.92;2.33;;;;;;;16.65;100.00;96750.38;5112960;28;20213;-55
2023/09/02 00:07:22;;;;;;;6.25;2.25;;;;;;;16.63;100.00;96758.53;5113958;28;20200;-54
2023/09/02 00:09:49;;;;;;;2.97;1.85;;;;;;;16.63;100.00;96755.88;5113426;28;20229;-56
2023/09/02 00:12:15;;;;;;;4.10;2.13;;;;;;;16.64;100.00;96762.88;5114351;28;20205;-55
2023/09/02 00:14:42;;;;;;;4.40;2.40;;;;;;;16.64;100.00;96760.22;5113264;28;20197;-56
2023/09/02 00:17:10;;;;;;;2.20;2.00;;;;;;;16.61;100.00;96765.91;5114160;28;20205;-56
2023/09/02 00:19:37;;;;;;;4.10;2.28;;;;;;;16.62;100.00;96762.22;5112374;28;20258;-55
2023/09/02 00:22:03;;;;;;;2.85;2.00;;;;;;;16.60;100.00;96755.41;5114171;28;20212;-55
2023/09/02 00:24:30;;;;;;;4.25;2.30;;;;;;;16.62;100.00;96766.72;5115473;28;20204;-55
2023/09/02 00:26:56;;;;;;;4.00;2.58;;;;;;;16.58;100.00;96762.75;5121605;28;20240;-56
2023/09/02 00:29:23;;;;;;;4.32;2.22;;;;;;;16.54;100.00;96764.94;5107776;28;20212;-54
2023/09/02 00:31:49;;;;;;;3.22;2.20;;;;;;;16.53;100.00;96760.59;5120229;28;20201;-55
2023/09/02 00:34:17;;;;;;;2.92;2.13;;;;;;;16.48;100.00;96760.28;5114493;28;20228;-54
2023/09/02 00:36:44;;;;;;;2.38;2.17;;;;;;;16.47;100.00;96755.13;5114786;28;20532;-55
2023/09/02 00:39:10;;;;;;;2.38;2.05;;;;;;;16.47;100.00;96755.13;5114176;28;20202;-55
2023/09/02 00:41:39;;;;;;;2.83;2.50;;;;;;;16.44;100.00;96757.13;5113629;28;20209;-55
2023/09/02 00:44:06;;;;;;;3.30;2.13;;;;;;;16.38;100.00;96755.16;5112731;28;20205;-56
2023/09/02 00:46:33;;;;;;;4.57;2.20;;;;;;;16.35;100.00;96752.84;5113222;28;20224;-55
2023/09/02 00:49:00;;;;;;;3.50;2.17;;;;;;;16.35;100.00;96757.34;5113287;28;20213;-55
2023/09/02 00:51:28;;;;;;;2.30;1.90;;;;;;;16.36;100.00;96759.03;5112764;28;20536;-54
2023/09/02 00:53:55;;;;;;;2.70;2.20;;;;;;;16.39;100.00;96761.34;5112580;28;20201;-56
2023/09/02 00:56:21;;;;;;;4.10;2.42;;;;;;;16.36;100.00;96757.19;5112406;28;20846;-55
2023/09/02 00:58:48;;;;;;;2.78;2.00;;;;;;;16.33;100.00;96759.38;5112793;28;20208;-55
2023/09/02 01:01:15;;;;;;;5.20;2.13;;;;;;;16.29;100.00;96758.06;5113399;28;20665;-55
2023/09/02 01:03:42;;;;;;;4.30;2.20;;;;;;;16.28;100.00;96764.41;5094660;28;20201;-54
2023/09/02 01:06:09;;;;;;;2.67;2.47;;;;;;;16.27;100.00;96768.06;5112675;28;20617;-55
2023/09/02 01:08:37;;;;;;;3.40;2.20;;;;;;;16.23;100.00;96766.75;5112031;28;20225;-56
2023/09/02 01:11:04;;;;;;;2.20;2.10;;;;;;;16.15;100.00;96772.16;5112529;27;20197;-55
2023/09/02 01:13:31;;;;;;;3.33;2.20;;;;;;;16.17;100.00;96775.47;5112313;28;20193;-55
2023/09/02 01:15:57;;;;;;;3.58;1.90;;;;;;;16.12;100.00;96772.50;5112717;28;20200;-57
2023/09/02 01:18:24;;;;;;;4.10;1.85;;;;;;;16.06;100.00;96770.50;5112653;28;20201;-55
2023/09/02 01:21:08;;;;;;;2.53;2.10;;;;;;;16.04;100.00;96770.72;5112007;28;20625;-55
2023/09/02 01:23:51;;;;;;;2.83;2.22;;;;;;;16.01;100.00;96780.88;5113064;28;20596;-56
2023/09/02 01:26:28;;;;;;;2.70;2.47;;;;;;;15.97;100.00;96775.06;5112188;28;20284;-55
2023/09/02 01:29:00;;;;;;;2.72;2.22;;;;;;;15.94;100.00;96778.91;5111863;28;20332;-56
2023/09/02 01:31:26;;;;;;;2.20;2.00;;;;;;;15.97;100.00;96790.25;5112518;28;20193;-56
2023/09/02 01:33:54;;;;;;;3.42;2.40;;;;;;;15.96;100.00;96780.56;5112917;28;20205;-56
2023/09/02 01:36:25;;;;;;;2.92;2.30;;;;;;;15.90;100.00;96780.28;5110835;28;20205;-54
2023/09/02 01:38:53;;;;;;;3.50;2.13;;;;;;;15.93;100.00;96779.09;5112384;28;20199;-55
2023/09/02 01:41:22;;;;;;;2.22;2.13;;;;;;;15.88;100.00;96776.09;5111813;28;20205;-55
2023/09/02 01:43:49;;;;;;;3.00;2.42;;;;;;;15.83;100.00;96776.63;5112100;28;20648;-55
2023/09/02 01:46:18;;;;;;;3.30;2.20;;;;;;;15.79;100.00;96777.13;5111951;28;20204;-57
2023/09/02 01:48:45;;;;;;;4.85;2.20;;;;;;;15.77;100.00;96782.63;5112294;28;20205;-56
2023/09/02 01:51:11;;;;;;;3.00;2.40;;;;;;;15.76;100.00;96775.66;5111993;28;20220;-53
2023/09/02 01:53:38;;;;;;;5.85;2.40;;;;;;;15.77;100.00;96766.63;5111598;28;20201;-55
2023/09/02 01:56:05;;;;;;;2.40;2.20;;;;;;;15.79;100.00;96772.63;5111509;28;20672;-55
2023/09/02 01:58:31;;;;;;;4.43;2.58;;;;;;;15.77;100.00;96768.47;5112002;28;20205;-54
2023/09/02 02:00:59;;;;;;;4.15;2.58;;;;;;;15.72;100.00;96779.66;5112464;28;20197;-56
2023/09/02 02:03:29;;;;;;;2.17;2.08;;;;;;;15.70;100.00;96770.97;5112816;28;20213;-55
2023/09/02 02:05:59;;;;;;;5.50;2.35;;;;;;;15.68;100.00;96781.00;5112568;28;20208;-57
2023/09/02 02:08:30;;;;;;;3.25;2.60;;;;;;;15.68;100.00;96781.00;5112375;28;20212;-54
2023/09/02 02:10:58;;;;;;;3.60;2.30;;;;;;;15.68;100.00;96780.16;5111447;28;20644;-54
2023/09/02 02:13:24;;;;;;;2.78;2.42;;;;;;;15.68;100.00;96785.50;5112042;28;20197;-56
2023/09/02 02:15:51;;;;;;;4.00;2.42;;;;;;;15.65;100.00;96780.50;5111716;28;20621;-55
2023/09/02 02:18:17;;;;;;;2.85;2.47;;;;;;;15.63;100.00;96786.00;5112504;28;20209;-56
2023/09/02 02:20:53;;;;;;;4.30;2.40;;;;;;;15.65;100.00;96788.50;5111447;28;20204;-55
2023/09/02 02:23:19;;;;;;;2.80;2.03;;;;;;;15.64;100.00;96778.84;5111793;28;20283;-56
2023/09/02 02:25:46;;;;;;;2.88;2.20;;;;;;;15.62;100.00;96779.03;5111659;28;20212;-56
2023/09/02 02:28:13;;;;;;;2.40;2.20;;;;;;;15.64;100.00;96781.50;5111195;28;20233;-55
2023/09/02 02:30:39;;;;;;;4.10;2.28;;;;;;;15.64;100.00;96790.34;5111697;28;20267;-55
2023/09/02 02:33:06;;;;;;;3.55;2.55;;;;;;;15.61;100.00;96789.84;5118952;28;20205;-56
2023/09/02 02:35:32;;;;;;;2.42;2.20;;;;;;;15.57;100.00;96788.53;5120678;28;20204;-55
2023/09/02 02:38:01;;;;;;;2.58;2.10;;;;;;;15.54;100.00;96794.19;5122044;28;20208;-56
2023/09/02 02:40:28;;;;;;;3.60;2.47;;;;;;;15.53;100.00;96792.53;5118179;28;20208;-56
2023/09/02 02:42:55;;;;;;;2.20;2.10;;;;;;;15.51;100.00;96795.38;5121672;28;20201;-55
2023/09/02 02:45:21;;;;;;;2.53;2.33;;;;;;;15.52;100.00;96799.69;5125096;28;20254;-56
2023/09/02 02:47:48;;;;;;;3.05;2.45;;;;;;;15.54;100.00;96800.38;5115747;28;20235;-54
2023/09/02 02:50:14;;;;;;;5.07;2.30;;;;;;;15.51;100.00;96810.53;5114451;28;20299;-56
2023/09/02 02:52:41;;;;;;;2.53;2.10;;;;;;;15.48;100.00;96802.84;5115195;28;20206;-54
2023/09/02 02:55:09;;;;;;;2.85;2.63;;;;;;;15.42;100.00;96804.34;5114891;28;20197;-55
2023/09/02 02:57:35;;;;;;;3.50;2.40;;;;;;;15.41;100.00;96806.16;5114857;28;20283;-56
2023/09/02 03:00:07;;;;;;;2.67;2.47;;;;;;;15.48;100.00;96800.19;5114900;28;20213;-56
2023/09/02 03:02:34;;;;;;;2.73;2.53;;;;;;;15.49;100.00;96800.03;5114290;28;21418;-55
2023/09/02 03:05:00;;;;;;;4.45;2.50;;;;;;;15.38;100.00;96801.19;5113765;28;20205;-56
2023/09/02 03:07:26;;;;;;;5.30;2.45;;;;;;;15.36;100.00;96802.38;5114629;28;20205;-58
2023/09/02 03:09:53;;;;;;;3.33;2.35;;;;;;;15.34;100.00;96801.69;5114023;28;20538;-56
2023/09/02 03:12:21;;;;;;;2.88;2.30;;;;;;;15.31;100.00;96799.34;5114627;28;20265;-56
2023/09/02 03:14:48;;;;;;;4.07;2.50;;;;;;;15.33;100.00;96803.53;5114141;28;20201;-56
2023/09/02 03:17:20;;;;;;;3.10;2.80;;;;;;;15.33;100.00;96802.69;5115463;28;20197;-56
2023/09/02 03:19:46;;;;;;;2.60;2.30;;;;;;;15.32;100.00;96798.38;5114463;28;20197;-56
2023/09/02 03:22:13;;;;;;;5.07;2.50;;;;;;;15.30;100.00;96803.03;5115166;28;20212;-56
2023/09/02 03:24:40;;;;;;;2.63;2.43;;;;;;;15.29;100.00;96804.03;5114638;28;20209;-55
2023/09/02 03:27:07;;;;;;;3.45;2.33;;;;;;;15.24;100.00;96803.69;5114822;28;20237;-55
2023/09/02 03:29:38;;;;;;;3.42;2.60;;;;;;;15.22;100.00;96808.38;5114155;28;20225;-56
2023/09/02 03:32:04;;;;;;;2.40;2.20;;;;;;;15.23;100.00;96812.72;5114783;28;20193;-56
2023/09/02 03:34:31;;;;;;;3.53;2.58;;;;;;;15.18;100.00;96815.88;5114685;28;20211;-55
2023/09/02 03:36:57;;;;;;;3.17;2.50;;;;;;;15.22;100.00;96811.03;5114229;28;20201;-54
2023/09/02 03:39:24;;;;;;;2.88;2.50;;;;;;;15.25;100.00;96805.38;5114253;28;20202;-55
2023/09/02 03:41:50;;;;;;;3.28;2.67;;;;;;;15.21;100.00;96799.53;5114452;28;20507;-56
2023/09/02 03:44:17;;;;;;;3.40;2.40;;;;;;;15.20;100.00;96805.03;5113783;28;20628;-56
2023/09/02 03:46:45;;;;;;;2.92;2.72;;;;;;;15.18;100.00;96805.22;5114437;28;20231;-56
2023/09/02 03:49:11;;;;;;;3.47;2.55;;;;;;;15.16;100.00;96809.06;5113576;28;20205;-56
2023/09/02 03:51:38;;;;;;;2.97;2.10;;;;;;;15.16;100.00;96806.38;5113827;28;20201;-55
2023/09/02 03:54:05;;;;;;;3.50;2.65;;;;;;;15.13;100.00;96817.34;5112495;28;20242;-55
2023/09/02 03:56:36;;;;;;;3.17;2.60;;;;;;;15.11;100.00;96803.38;5114361;28;20261;-57
2023/09/02 03:59:03;;;;;;;3.13;2.87;;;;;;;15.09;100.00;96806.19;5113976;28;20209;-56
2023/09/02 04:01:30;;;;;;;3.40;2.73;;;;;;;15.07;100.00;96813.53;5114014;28;20209;-59
2023/09/02 04:03:58;;;;;;;4.33;2.50;;;;;;;15.05;100.00;96814.72;5113661;28;20201;-55
2023/09/02 04:06:25;;;;;;;2.90;2.53;;;;;;;15.03;100.00;96817.53;5113485;28;20201;-54
2023/09/02 04:08:51;;;;;;;2.70;2.50;;;;;;;15.02;100.00;96813.19;5114315;28;20197;-56
2023/09/02 04:11:18;;;;;;;2.90;2.70;;;;;;;15.01;100.00;96811.53;5112937;28;20901;-55
2023/09/02 04:13:44;;;;;;;2.73;2.53;;;;;;;14.99;100.00;96807.34;5114117;28;20205;-55
2023/09/02 04:16:11;;;;;;;3.30;3.00;;;;;;;14.96;100.00;96816.53;5114065;28;20610;-56
2023/09/02 04:18:38;;;;;;;2.67;2.47;;;;;;;14.97;100.00;96814.69;5113985;28;20197;-56
2023/09/02 04:21:08;;;;;;;2.80;2.53;;;;;;;14.96;100.00;96816.53;5113281;28;20205;-56
2023/09/02 04:23:35;;;;;;;2.87;2.67;;;;;;;14.95;100.00;96821.00;5095546;28;20585;-56
2023/09/02 04:26:03;;;;;;;3.07;2.87;;;;;;;14.94;100.00;96816.72;5113512;28;20197;-54
2023/09/02 04:28:29;;;;;;;3.97;3.00;;;;;;;14.92;100.00;96820.50;5113178;28;20239;-57
2023/09/02 04:30:56;;;;;;;3.93;2.80;;;;;;;14.92;100.00;96816.03;5112852;28;20252;-56
2023/09/02 04:33:24;;;;;;;3.27;2.70;;;;;;;14.92;100.00;96816.03;5113681;28;20204;-56
2023/09/02 04:35:50;;;;;;;3.77;2.73;;;;;;;14.93;100.00;96817.69;5112795;28;20320;-56
2023/09/02 04:38:18;;;;;;;3.17;2.87;;;;;;;14.90;100.00;96818.03;5112656;28;20209;-56
2023/09/02 04:40:45;;;;;;;3.13;2.93;;;;;;;14.89;100.00;96821.69;5112062;28;20243;-56
2023/09/02 04:43:13;;;;;;;3.40;3.07;;;;;;;14.89;100.00;96829.66;5112449;28;21336;-56
2023/09/02 04:45:41;;;;;;;3.17;2.72;;;;;;;14.87;100.00;96828.19;5111934;28;20644;-57
2023/09/02 04:48:09;;;;;;;3.17;2.80;;;;;;;14.87;100.00;96826.34;5113032;28;20219;-55
2023/09/02 04:50:36;;;;;;;4.63;2.83;;;;;;;14.90;100.00;96833.16;5114082;28;20232;-55
2023/09/02 04:53:04;;;;;;;3.23;2.90;;;;;;;14.89;100.00;96831.50;5116524;28;20205;-56
2023/09/02 04:55:31;;;;;;;3.07;2.87;;;;;;;14.87;100.00;96831.69;5117191;28;20304;-56
2023/09/02 04:57:58;;;;;;;3.73;3.10;;;;;;;14.87;100.00;96839.66;5113689;28;20227;-56
2023/09/02 05:00:26;;;;;;;5.67;3.10;;;;;;;14.85;100.00;96838.97;5112339;28;20198;-56
2023/09/02 05:02:53;;;;;;;3.40;3.10;;;;;;;14.89;100.00;96840.31;5112154;28;20668;-55
2023/09/02 05:05:21;;;;;;;4.50;3.27;;;;;;;14.87;100.00;96844.16;5111644;28;20231;-55
2023/09/02 05:07:48;;;;;;;3.47;3.00;;;;;;;14.86;100.00;96845.16;5112254;28;20201;-56
2023/09/02 05:10:15;;;;;;;5.20;3.57;;;;;;;14.87;100.00;96845.00;5112210;28;20232;-55
2023/09/02 05:12:43;;;;;;;5.17;3.50;;;;;;;14.89;100.00;96845.66;5112565;28;20216;-56
2023/09/02 05:15:10;;;;;;;4.23;3.33;;;;;;;14.92;100.00;96855.97;5112487;28;20626;-55
2023/09/02 05:17:37;;;;;;;6.17;3.70;;;;;;;14.94;100.00;96856.66;5113121;28;20552;-55
2023/09/02 05:20:05;;;;;;;6.57;3.50;;;;;;;15.00;100.00;96854.31;5112873;28;20204;-56
2023/09/02 05:22:32;;;;;;;5.18;3.55;;;;;;;15.04;100.00;96855.66;5112299;28;20208;-56
2023/09/02 05:24:58;;;;;;;4.80;3.53;;;;;;;15.07;100.00;96858.81;5112522;28;20216;-56
2023/09/02 05:27:25;;;;;;;5.50;3.50;;;;;;;15.14;100.00;96861.66;5112872;28;20235;-55
2023/09/02 05:29:52;;;;;;;3.50;3.20;;;;;;;15.21;100.00;96870.63;5112206;28;20197;-56
2023/09/02 05:32:19;;;;;;;4.05;3.70;;;;;;;15.25;100.00;96866.66;5112808;28;20216;-54
2023/09/02 05:34:46;;;;;;;4.83;3.20;;;;;;;15.31;100.00;96863.31;5111507;28;20228;-56
2023/09/02 05:37:12;;;;;;;3.70;3.40;;;;;;;15.34;100.00;96865.63;5114934;28;20201;-56
2023/09/02 05:39:39;;;;;;;3.53;3.23;;;;;;;15.38;100.00;96867.81;5112671;28;20224;-56
2023/09/02 05:42:06;;;;;;;5.20;3.65;;;;;;;15.46;100.00;96877.63;5112509;28;20205;-55
2023/09/02 05:44:34;;;;;;;3.72;3.35;;;;;;;15.55;100.00;96879.34;5111970;28;20204;-56
2023/09/02 05:47:02;;;;;;;4.88;3.33;;;;;;;15.65;100.00;96882.66;5112457;28;20204;-55
2023/09/02 05:49:29;;;;;;;4.07;3.65;;;;;;;15.79;100.00;96883.81;5114976;28;20209;-54
2023/09/02 05:51:56;;;;;;;4.00;3.40;;;;;;;15.93;100.00;96889.28;5111825;28;20225;-55
2023/09/02 05:54:22;;;;;;;4.22;3.15;;;;;;;16.11;100.00;96886.41;5112128;28;20209;-56
2023/09/02 05:56:49;;;;;;;8.10;6.45;;;;;;;16.34;100.00;96889.97;5112229;28;20216;-56
2023/09/02 05:59:15;;;;;;;4.80;4.38;;;;;;;16.55;100.00;96893.88;5112091;28;20200;-56
2023/09/02 06:01:43;;;;;;;4.40;4.00;;;;;;;16.79;100.00;96891.16;5112323;28;20201;-54
2023/09/02 06:04:10;;;;;;;4.80;3.83;;;;;;;17.05;100.00;96894.31;5112350;28;20208;-55
2023/09/02 06:06:37;;;;;;;4.65;3.95;;;;;;;17.33;100.00;96899.94;5112307;28;20620;-57
2023/09/02 06:09:03;;;;;;;4.47;3.95;;;;;;;17.68;100.00;96901.19;5112816;28;20635;-56
2023/09/02 06:11:30;;;;;;;3.70;3.40;;;;;;;17.93;100.00;96897.28;5111991;28;20229;-55
2023/09/02 06:13:57;;;;;;;4.50;4.10;;;;;;;18.13;100.00;96894.91;5112670;28;20547;-56
2023/09/02 06:16:23;;;;;;;4.93;3.90;;;;;;;18.26;100.00;96895.09;5113985;28;20637;-56
2023/09/02 06:18:49;;;;;;;4.43;4.03;;;;;;;18.55;100.00;96896.97;5117587;28;20197;-54
2023/09/02 06:21:17;;;;;;;3.75;3.53;;;;;;;18.92;100.00;96886.06;5117479;28;20201;-56
2023/09/02 06:23:45;;;;;;;6.13;4.05;;;;;;;19.34;100.00;96893.34;5117510;28;20205;-55
2023/09/02 06:26:12;;;;;;;6.28;4.07;;;;;;;19.66;100.00;96895.50;5117252;28;20209;-57
2023/09/02 06:28:39;;;;;;;3.65;3.35;;;;;;;20.22;100.00;96903.59;5116610;28;20268;-57
2023/09/02 06:31:06;;;;;;;5.25;3.67;;;;;;;20.60;100.00;96904.03;5116519;28;20239;-54
2023/09/02 06:33:33;;;;;;;4.38;3.80;;;;;;;20.90;100.00;96907.28;5116887;28;20209;-55
2023/09/02 06:36:00;;;;;;;3.65;3.42;;;;;;;21.29;100.00;96904.75;5116365;28;20209;-56
2023/09/02 06:38:27;;;;;;;5.60;4.00;;;;;;;21.69;100.00;96909.16;5117003;28;20205;-57
2023/09/02 06:40:54;;;;;;;4.63;4.18;;;;;;;22.13;99.47;96915.81;5116381;28;20205;-56
2023/09/02 06:43:20;;;;;;;4.47;3.55;;;;;;;21.92;100.00;96910.66;5117126;28;20212;-55
2023/09/02 06:45:47;;;;;;;4.15;3.75;;;;;;;21.98;100.00;96910.66;5116707;28;20197;-56
2023/09/02 06:48:14;;;;;;;8.68;4.28;;;;;;;22.05;100.00;96916.84;5117033;28;20197;-55
2023/09/02 06:50:40;;;;;;;7.35;4.13;;;;;;;22.44;98.87;96913.28;5116160;28;20217;-54
2023/09/02 06:53:06;;;;;;;4.35;3.80;;;;;;;22.58;97.19;96916.75;5116439;28;20197;-56
2023/09/02 06:55:34;;;;;;;4.10;3.72;;;;;;;22.22;97.14;96912.69;5116082;28;20220;-55
2023/09/02 06:58:01;;;;;;;3.88;3.58;;;;;;;22.36;100.00;96921.56;5121891;28;20228;-58
2023/09/02 07:00:28;;;;;;;4.25;3.85;;;;;;;22.14;100.00;96929.06;5118307;28;20617;-61
2023/09/02 07:02:54;;;;;;;3.78;3.40;;;;;;;22.06;100.00;96925.75;5119165;28;20203;-57
2023/09/02 07:05:23;;;;;;;4.25;3.55;;;;;;;22.31;100.00;96929.47;5128271;28;20295;-56
2023/09/02 07:07:50;;;;;;;4.18;3.78;;;;;;;22.64;98.74;96932.91;5133295;28;20205;-57
2023/09/02 07:10:18;;;;;;;3.80;3.50;;;;;;;22.34;94.24;96937.13;5124227;28;20217;-56
2023/09/02 07:12:52;;;;;;;4.20;3.85;;;;;;;22.31;96.96;96946.47;5126053;28;20198;-62
2023/09/02 07:15:18;;;;;;;4.18;3.88;;;;;;;22.59;95.43;96948.09;5119217;28;20201;-58
2023/09/02 07:17:46;;;;;;;5.40;3.80;;;;;;;22.87;95.56;96951.34;5116543;28;20229;-57
2023/09/02 07:20:13;;;;;;;4.15;3.83;;;;;;;22.79;93.58;96957.81;5117011;28;20224;-58
2023/09/02 07:22:39;;;;;;;4.03;3.70;;;;;;;22.63;97.19;96952.84;5116155;28;20201;-57
2023/09/02 07:25:07;;;;;;;4.80;3.95;;;;;;;22.87;92.48;96956.75;5115389;28;20194;-60
2023/09/02 07:27:35;;;;;;;4.00;3.70;;;;;;;22.90;96.00;96961.72;5114936;28;20580;-60
2023/09/02 07:30:04;;;;;;;6.10;3.70;;;;;;;23.11;94.71;96955.19;5114923;28;20209;-57
2023/09/02 07:32:30;;;;;;;5.43;3.42;;;;;;;22.95;93.03;96958.38;5114116;28;20667;-58
2023/09/02 07:34:57;;;;;;;4.38;3.97;;;;;;;22.90;95.82;96960.88;5114464;28;20205;-55
2023/09/02 07:37:25;;;;;;;4.07;3.60;;;;;;;23.27;91.64;96954.72;5115123;28;20209;-58
2023/09/02 07:39:52;;;;;;;6.03;3.75;;;;;;;23.44;89.39;96958.63;5115144;28;20205;-55
2023/09/02 07:42:20;;;;;;;5.85;3.95;;;;;;;23.22;91.24;96951.84;5115014;28;20415;-58
2023/09/02 07:44:47;;;;;;;4.63;3.70;;;;;;;23.49;88.93;96956.06;5113967;28;20197;-59
2023/09/02 07:47:15;;;;;;;3.33;3.10;;;;;;;23.37;91.50;96949.69;5114662;28;20201;-59
2023/09/02 07:49:42;;;;;;;3.40;3.17;;;;;;;23.61;96.01;96956.22;5114424;28;20201;-59
2023/09/02 07:52:08;;;;;;;4.15;3.75;;;;;;;23.60;90.52;96955.41;5115071;28;20240;-58
2023/09/02 07:54:35;;;;;;;3.60;3.30;;;;;;;23.75;90.33;96955.09;5096231;28;20201;-57
2023/09/02 07:57:02;;;;;;;3.63;3.33;;;;;;;23.65;92.70;96960.97;5114950;28;20208;-57
2023/09/02 07:59:29;;;;;;;3.55;2.90;;;;;;;23.56;89.83;96964.16;5114927;28;20224;-54
2023/09/02 08:01:55;;;;;;;4.60;3.40;;;;;;;23.26;89.33;96963.84;5114738;28;20189;-57
2023/09/02 08:04:41;;;;;;;3.97;3.45;;;;;;;23.22;90.22;96957.22;5115616;28;20208;-55
2023/09/02 08:07:08;;;;;;;3.30;3.10;;;;;;;23.12;91.68;96956.88;5114722;28;20229;-57
2023/09/02 08:09:34;;;;;;;3.53;3.22;;;;;;;23.12;92.01;96949.59;5114622;28;20201;-54
2023/09/02 08:12:01;;;;;;;4.57;3.30;;;;;;;23.21;91.14;96960.97;5113939;28;20656;-55
2023/09/02 08:14:27;;;;;;;3.65;3.30;;;;;;;23.17;89.08;96959.72;5113733;28;20220;-55
2023/09/02 08:16:54;;;;;;;3.72;3.22;;;;;;;23.26;91.15;96963.84;5113629;27;20206;-56
2023/09/02 08:19:20;;;;;;;5.78;3.45;;;;;;;23.40;92.92;96954.66;5113777;28;20266;-56
2023/09/02 08:21:48;;;;;;;3.35;3.05;;;;;;;23.58;88.45;96952.09;5113019;28;20201;-55
2023/09/02 08:24:15;;;;;;;3.13;2.92;;;;;;;23.77;91.87;96951.13;5113871;28;20583;-56
2023/09/02 08:26:42;;;;;;;3.53;3.22;;;;;;;23.94;88.76;96958.72;5095536;28;20260;-57
2023/09/02 08:29:09;;;;;;;3.40;3.03;;;;;;;24.14;89.98;96956.72;5114298;28;20243;-55
2023/09/02 08:31:35;;;;;;;3.50;3.20;;;;;;;23.99;83.21;96957.00;5114259;28;20587;-57
2023/09/02 08:34:02;;;;;;;3.10;2.88;;;;;;;24.17;86.20;96958.97;5113899;28;20601;-55
2023/09/02 08:36:28;;;;;;;3.60;3.10;;;;;;;24.41;85.08;96958.13;5113781;28;20212;-56
2023/09/02 08:38:56;;;;;;;3.03;2.83;;;;;;;24.77;86.62;96962.75;5109636;28;20197;-56
2023/09/02 08:41:26;;;;;;;3.97;2.70;;;;;;;24.75;81.94;96964.88;5113452;28;20193;-55
2023/09/02 08:43:54;;;;;;;4.57;3.00;;;;;;;24.97;86.54;96962.59;5095660;28;20197;-57
2023/09/02 08:46:21;;;;;;;3.20;2.97;;;;;;;25.18;79.91;96970.25;5113825;28;20541;-57
2023/09/02 08:48:49;;;;;;;3.30;3.00;;;;;;;25.24;77.58;96969.34;5113595;28;20204;-56
2023/09/02 08:51:15;;;;;;;3.15;2.90;;;;;;;25.47;78.46;96974.06;5113577;28;20243;-57
2023/09/02 08:53:43;;;;;;;3.40;3.00;;;;;;;25.68;79.91;96971.66;5113537;28;20205;-55
2023/09/02 08:56:11;;;;;;;5.63;2.75;;;;;;;25.62;75.89;96967.19;5112968;28;20201;-55
2023/09/02 08:58:42;;;;;;;2.75;2.55;;;;;;;25.54;76.03;96974.81;5112604;28;20776;-56
2023/09/02 09:01:09;;;;;;;5.45;3.17;;;;;;;25.73;76.62;96969.13;5113378;28;20290;-56
2023/09/02 09:03:35;;;;;;;4.88;2.90;;;;;;;25.87;75.85;96975.16;5112206;28;20208;-54
2023/09/02 09:06:03;;;;;;;3.00;2.65;;;;;;;25.77;73.06;96971.34;5112253;28;20201;-57
2023/09/02 09:08:31;;;;;;;2.95;2.47;;;;;;;26.14;75.04;96967.47;5112380;28;20193;-56
2023/09/02 09:10:58;;;;;;;3.05;2.75;;;;;;;26.11;72.00;96973.34;5111577;28;20523;-55
2023/09/02 09:13:26;;;;;;;2.95;2.63;;;;;;;26.09;68.50;96962.72;5112471;28;20205;-56
2023/09/02 09:15:55;;;;;;;3.13;2.65;;;;;;;26.38;67.67;96968.34;5112647;28;20208;-57
2023/09/02 09:18:22;;;;;;;2.95;2.30;;;;;;;26.45;67.92;96971.78;5128449;28;20216;-56
2023/09/02 09:20:49;;;;;;;2.40;2.25;;;;;;;26.72;66.41;96962.91;5133720;28;20203;-56
2023/09/02 09:23:15;;;;;;;3.67;2.42;;;;;;;26.80;67.23;96966.34;5133495;28;20290;-55
2023/09/02 09:25:42;;;;;;;2.60;2.42;;;;;;;26.89;64.45;96967.69;5124761;28;20201;-56
2023/09/02 09:28:10;;;;;;;2.05;1.92;;;;;;;27.10;64.42;96961.63;5121936;28;20232;-56
2023/09/02 09:30:41;;;;;;;2.55;2.25;;;;;;;26.95;63.69;96962.13;5114707;28;20246;-57
2023/09/02 09:33:09;;;;;;;2.60;2.40;;;;;;;27.50;65.88;96954.31;5112822;28;20205;-56
2023/09/02 09:35:39;;;;;;;2.92;2.72;;;;;;;27.28;65.75;96963.34;5112859;28;20284;-55
2023/09/02 09:38:06;;;;;;;3.75;2.35;;;;;;;27.50;65.75;96959.75;5115437;28;20215;-55
2023/09/02 09:40:34;;;;;;;3.00;2.80;;;;;;;27.58;65.23;96962.09;5114256;28;20216;-55
2023/09/02 09:43:04;;;;;;;3.60;2.97;;;;;;;27.48;66.28;96951.03;5112526;28;20205;-56
2023/09/02 09:45:31;;;;;;;2.63;2.42;;;;;;;27.57;65.81;96959.59;5113315;28;20640;-55
2023/09/02 09:48:01;;;;;;;3.05;2.50;;;;;;;27.74;65.98;96946.06;5113892;28;20637;-55
2023/09/02 09:50:28;;;;;;;2.80;2.60;;;;;;;27.77;67.18;96949.13;5110674;28;20212;-56
2023/09/02 09:53:01;;;;;;;2.70;2.50;;;;;;;27.81;65.77;96946.75;5112416;28;20232;-55
2023/09/02 09:55:28;;;;;;;2.42;2.22;;;;;;;28.25;63.15;96947.78;5112643;28;20225;-55
2023/09/02 09:57:55;;;;;;;2.17;1.98;;;;;;;28.45;58.11;96940.78;5112716;28;20212;-56
2023/09/02 10:00:23;;;;;;;1.95;1.85;;;;;;;28.59;59.31;96950.25;5112180;28;20215;-57
2023/09/02 10:02:54;;;;;;;2.83;1.98;;;;;;;28.69;61.91;96946.06;5115024;28;20205;-56
2023/09/02 10:05:26;;;;;;;2.47;2.28;;;;;;;28.36;61.16;96945.00;5114937;28;20284;-57
2023/09/02 10:07:59;;;;;;;2.65;2.30;;;;;;;28.54;59.64;96950.19;5112214;28;20205;-56
2023/09/02 10:10:31;;;;;;;2.60;2.40;;;;;;;28.83;62.25;96941.91;5112238;28;20197;-54
2023/09/02 10:12:58;;;;;;;2.53;2.33;;;;;;;28.71;61.24;96949.34;5112104;28;20225;-57
2023/09/02 10:15:26;;;;;;;3.50;2.72;;;;;;;28.69;59.50;96946.91;5111420;28;20201;-56
2023/09/02 10:17:55;;;;;;;3.67;2.33;;;;;;;28.90;63.84;96934.41;5111196;28;20629;-56
2023/09/02 10:20:22;;;;;;;3.30;2.50;;;;;;;28.71;60.28;96931.13;5111269;28;20212;-57
2023/09/02 10:22:51;;;;;;;2.72;2.40;;;;;;;28.27;61.46;96927.41;5111083;28;20197;-57
2023/09/02 10:25:24;;;;;;;3.13;2.25;;;;;;;28.17;61.56;96921.81;5111371;28;20254;-56
2023/09/02 10:27:58;;;;;;;2.72;2.53;;;;;;;28.23;63.66;96923.59;5110785;28;20237;-57
2023/09/02 10:30:27;;;;;;;3.00;2.72;;;;;;;28.38;61.21;96926.50;5111157;28;20212;-56
2023/09/02 10:32:56;;;;;;;5.03;3.03;;;;;;;28.47;60.73;96924.22;5112292;28;20559;-57
2023/09/02 10:35:24;;;;;;;3.00;2.80;;;;;;;28.37;59.46;96915.91;5092925;28;20208;-57
2023/09/02 10:37:54;;;;;;;2.97;2.60;;;;;;;28.41;58.38;96919.78;5111601;28;20197;-57
2023/09/02 10:40:22;;;;;;;2.78;2.58;;;;;;;28.54;60.81;96913.97;5110793;28;20205;-57
2023/09/02 10:42:49;;;;;;;3.22;2.80;;;;;;;28.95;63.58;96923.56;5111189;28;20196;-58
2023/09/02 10:45:16;;;;;;;3.40;3.10;;;;;;;28.62;60.77;96917.09;5110990;28;20637;-58
2023/09/02 10:47:43;;;;;;;2.63;2.42;;;;;;;28.82;58.94;96913.88;5111726;28;20556;-56
2023/09/02 10:50:13;;;;;;;2.50;2.30;;;;;;;29.04;59.80;96911.16;5116936;28;20201;-57
2023/09/02 10:52:40;;;;;;;2.65;2.45;;;;;;;29.33;60.87;96909.09;5113889;28;20236;-57
2023/09/02 10:55:09;;;;;;;2.55;2.35;;;;;;;29.28;58.42;96907.13;5110805;28;20205;-57
2023/09/02 10:57:45;;;;;;;4.60;2.53;;;;;;;29.51;60.66;96906.81;5111255;28;20201;-56
2023/09/02 11:00:18;;;;;;;3.30;3.00;;;;;;;29.60;63.60;96899.84;5111286;28;20200;-56
2023/09/02 11:02:46;;;;;;;2.72;2.53;;;;;;;29.23;62.17;96904.28;5112727;28;20196;-56
2023/09/02 11:05:13;;;;;;;5.50;2.72;;;;;;;29.29;63.19;96903.34;5114129;28;20248;-56
2023/09/02 11:07:41;;;;;;;2.75;2.53;;;;;;;29.52;57.59;96904.94;5115736;28;20201;-56
2023/09/02 11:10:10;;;;;;;2.90;2.70;;;;;;;29.52;58.98;96900.31;5098118;28;20205;-57
2023/09/02 11:13:03;;;;;;;2.90;2.70;;;;;;;29.31;55.42;96895.72;5115289;28;20311;-57
2023/09/02 11:15:31;;;;;;;2.72;2.50;;;;;;;29.22;55.46;96902.66;5114321;28;20593;-57
2023/09/02 11:17:58;;;;;;;3.10;2.78;;;;;;;29.36;57.13;96901.22;5115208;28;20197;-57
2023/09/02 11:20:26;;;;;;;3.08;2.30;;;;;;;29.57;57.44;96905.81;5114707;28;20652;-57
2023/09/02 11:22:55;;;;;;;2.72;2.30;;;;;;;29.55;56.85;96904.41;5116929;28;20205;-58
2023/09/02 11:25:41;;;;;;;2.13;1.92;;;;;;;29.44;51.34;96900.75;5138054;28;20209;-56
2023/09/02 11:28:09;;;;;;;2.45;1.75;;;;;;;29.72;51.79;96912.50;5139643;28;20250;-56
2023/09/02 11:30:37;;;;;;;2.55;2.22;;;;;;;29.80;51.81;96903.84;5122835;28;20764;-55